sensor_id;sensor_type;location;lat;lon;timestamp;P1;durP1;ratioP1;P2;durP2;ratioP2
52124;SDS011;38119;52.710;6.398;2023-07-30T00:02:17;11.90;;;5.43;;
52124;SDS011;38119;52.710;6.398;2023-07-30T00:04:43;14.43;;;4.70;;
52124;SDS011;38119;52.710;6.398;2023-07-30T00:07:10;14.90;;;5.13;;
52124;SDS011;38119;52.710;6.398;2023-07-30T00:09:36;14.63;;;5.03;;
52124;SDS011;38119;52.710;6.398;2023-07-30T00:12:02;15.57;;;4.88;;
52124;SDS011;38119;52.710;6.398;2023-07-30T00:14:29;14.98;;;5.10;;
52124;SDS011;38119;52.710;6.398;2023-07-30T00:16:55;13.50;;;4.90;;
52124;SDS011;38119;52.710;6.398;2023-07-30T00:19:21;14.35;;;5.03;;
52124;SDS011;38119;52.710;6.398;2023-07-30T00:21:47;17.15;;;5.25;;
52124;SDS011;38119;52.710;6.398;2023-07-30T00:24:13;14.27;;;5.20;;
52124;SDS011;38119;52.710;6.398;2023-07-30T00:26:38;14.32;;;4.93;;
52124;SDS011;38119;52.710;6.398;2023-07-30T00:29:04;17.02;;;5.05;;
52124;SDS011;38119;52.710;6.398;2023-07-30T00:31:30;18.23;;;5.13;;
52124;SDS011;38119;52.710;6.398;2023-07-30T00:33:55;13.10;;;5.47;;
52124;SDS011;38119;52.710;6.398;2023-07-30T00:36:21;12.90;;;4.72;;
52124;SDS011;38119;52.710;6.398;2023-07-30T00:38:47;15.70;;;5.60;;
52124;SDS011;38119;52.710;6.398;2023-07-30T00:41:12;14.45;;;5.55;;
52124;SDS011;38119;52.710;6.398;2023-07-30T00:43:38;13.13;;;5.20;;
52124;SDS011;38119;52.710;6.398;2023-07-30T00:46:04;16.08;;;5.07;;
52124;SDS011;38119;52.710;6.398;2023-07-30T00:48:29;16.08;;;4.97;;
52124;SDS011;38119;52.710;6.398;2023-07-30T00:50:55;12.60;;;5.32;;
52124;SDS011;38119;52.710;6.398;2023-07-30T00:53:22;15.38;;;5.45;;
52124;SDS011;38119;52.710;6.398;2023-07-30T00:55:49;13.68;;;5.25;;
52124;SDS011;38119;52.710;6.398;2023-07-30T00:58:15;13.75;;;5.00;;
52124;SDS011;38119;52.710;6.398;2023-07-30T01:00:41;12.23;;;4.82;;
52124;SDS011;38119;52.710;6.398;2023-07-30T01:03:07;13.00;;;4.80;;
52124;SDS011;38119;52.710;6.398;2023-07-30T01:05:33;11.25;;;4.75;;
52124;SDS011;38119;52.710;6.398;2023-07-30T01:07:59;10.80;;;4.72;;
52124;SDS011;38119;52.710;6.398;2023-07-30T01:10:24;11.90;;;4.88;;
52124;SDS011;38119;52.710;6.398;2023-07-30T01:12:51;13.57;;;4.57;;
52124;SDS011;38119;52.710;6.398;2023-07-30T01:15:17;12.05;;;4.50;;
52124;SDS011;38119;52.710;6.398;2023-07-30T01:17:44;11.73;;;4.47;;
52124;SDS011;38119;52.710;6.398;2023-07-30T01:20:10;11.40;;;4.63;;
52124;SDS011;38119;52.710;6.398;2023-07-30T01:22:37;14.52;;;4.68;;
52124;SDS011;38119;52.710;6.398;2023-07-30T01:25:02;16.80;;;4.93;;
52124;SDS011;38119;52.710;6.398;2023-07-30T01:27:29;17.42;;;4.50;;
52124;SDS011;38119;52.710;6.398;2023-07-30T01:30:01;13.80;;;5.15;;
52124;SDS011;38119;52.710;6.398;2023-07-30T01:32:33;8.80;;;4.45;;
52124;SDS011;38119;52.710;6.398;2023-07-30T01:34:59;12.45;;;4.80;;
52124;SDS011;38119;52.710;6.398;2023-07-30T01:37:27;14.85;;;4.30;;
52124;SDS011;38119;52.710;6.398;2023-07-30T01:39:54;13.27;;;4.78;;
52124;SDS011;38119;52.710;6.398;2023-07-30T01:42:21;9.13;;;4.03;;
52124;SDS011;38119;52.710;6.398;2023-07-30T01:44:46;11.85;;;4.43;;
52124;SDS011;38119;52.710;6.398;2023-07-30T01:47:12;18.00;;;4.40;;
52124;SDS011;38119;52.710;6.398;2023-07-30T01:49:38;9.90;;;4.03;;
52124;SDS011;38119;52.710;6.398;2023-07-30T01:52:03;11.88;;;4.15;;
52124;SDS011;38119;52.710;6.398;2023-07-30T01:54:29;10.52;;;3.72;;
52124;SDS011;38119;52.710;6.398;2023-07-30T01:56:55;18.25;;;4.20;;
52124;SDS011;38119;52.710;6.398;2023-07-30T01:59:20;13.63;;;3.90;;
52124;SDS011;38119;52.710;6.398;2023-07-30T02:01:46;15.70;;;4.90;;
52124;SDS011;38119;52.710;6.398;2023-07-30T02:04:12;11.60;;;4.43;;
52124;SDS011;38119;52.710;6.398;2023-07-30T02:06:37;14.10;;;4.22;;
52124;SDS011;38119;52.710;6.398;2023-07-30T02:09:03;12.48;;;4.45;;
52124;SDS011;38119;52.710;6.398;2023-07-30T02:11:28;11.75;;;3.78;;
52124;SDS011;38119;52.710;6.398;2023-07-30T02:13:54;11.38;;;3.80;;
52124;SDS011;38119;52.710;6.398;2023-07-30T02:16:20;13.35;;;3.97;;
52124;SDS011;38119;52.710;6.398;2023-07-30T02:18:45;8.50;;;3.72;;
52124;SDS011;38119;52.710;6.398;2023-07-30T02:21:12;13.95;;;4.22;;
52124;SDS011;38119;52.710;6.398;2023-07-30T02:23:37;15.02;;;4.20;;
52124;SDS011;38119;52.710;6.398;2023-07-30T02:26:03;10.90;;;3.53;;
52124;SDS011;38119;52.710;6.398;2023-07-30T02:28:29;14.30;;;3.72;;
52124;SDS011;38119;52.710;6.398;2023-07-30T02:30:54;14.35;;;3.50;;
52124;SDS011;38119;52.710;6.398;2023-07-30T02:33:20;19.38;;;4.32;;
52124;SDS011;38119;52.710;6.398;2023-07-30T02:35:45;13.63;;;4.20;;
52124;SDS011;38119;52.710;6.398;2023-07-30T02:38:11;14.05;;;3.78;;
52124;SDS011;38119;52.710;6.398;2023-07-30T02:40:37;12.40;;;4.30;;
52124;SDS011;38119;52.710;6.398;2023-07-30T02:43:03;12.38;;;3.70;;
52124;SDS011;38119;52.710;6.398;2023-07-30T02:45:28;14.82;;;4.45;;
52124;SDS011;38119;52.710;6.398;2023-07-30T02:47:54;12.45;;;4.07;;
52124;SDS011;38119;52.710;6.398;2023-07-30T02:50:20;11.70;;;3.75;;
52124;SDS011;38119;52.710;6.398;2023-07-30T02:52:46;10.38;;;4.05;;
52124;SDS011;38119;52.710;6.398;2023-07-30T02:55:11;13.63;;;4.28;;
52124;SDS011;38119;52.710;6.398;2023-07-30T02:57:37;15.48;;;4.45;;
52124;SDS011;38119;52.710;6.398;2023-07-30T03:00:03;12.77;;;4.32;;
52124;SDS011;38119;52.710;6.398;2023-07-30T03:02:29;10.70;;;3.85;;
52124;SDS011;38119;52.710;6.398;2023-07-30T03:04:55;11.00;;;4.28;;
52124;SDS011;38119;52.710;6.398;2023-07-30T03:07:20;13.82;;;3.80;;
52124;SDS011;38119;52.710;6.398;2023-07-30T03:09:46;11.77;;;3.95;;
52124;SDS011;38119;52.710;6.398;2023-07-30T03:12:12;9.77;;;3.80;;
52124;SDS011;38119;52.710;6.398;2023-07-30T03:14:38;13.88;;;4.40;;
52124;SDS011;38119;52.710;6.398;2023-07-30T03:17:03;13.60;;;4.60;;
52124;SDS011;38119;52.710;6.398;2023-07-30T03:19:30;10.32;;;3.88;;
52124;SDS011;38119;52.710;6.398;2023-07-30T03:21:56;11.65;;;3.97;;
52124;SDS011;38119;52.710;6.398;2023-07-30T03:24:21;12.75;;;3.45;;
52124;SDS011;38119;52.710;6.398;2023-07-30T03:26:47;15.98;;;3.92;;
52124;SDS011;38119;52.710;6.398;2023-07-30T03:29:13;16.67;;;3.85;;
52124;SDS011;38119;52.710;6.398;2023-07-30T03:31:39;16.10;;;4.72;;
52124;SDS011;38119;52.710;6.398;2023-07-30T03:34:05;14.55;;;3.65;;
52124;SDS011;38119;52.710;6.398;2023-07-30T03:36:30;11.73;;;4.43;;
52124;SDS011;38119;52.710;6.398;2023-07-30T03:38:56;14.93;;;4.38;;
52124;SDS011;38119;52.710;6.398;2023-07-30T03:41:22;10.20;;;4.35;;
52124;SDS011;38119;52.710;6.398;2023-07-30T03:43:47;10.50;;;3.92;;
52124;SDS011;38119;52.710;6.398;2023-07-30T03:46:13;14.75;;;4.15;;
52124;SDS011;38119;52.710;6.398;2023-07-30T03:48:39;12.63;;;3.92;;
52124;SDS011;38119;52.710;6.398;2023-07-30T03:51:04;14.25;;;4.78;;
52124;SDS011;38119;52.710;6.398;2023-07-30T03:53:32;13.68;;;3.90;;
52124;SDS011;38119;52.710;6.398;2023-07-30T03:55:57;16.00;;;4.20;;
52124;SDS011;38119;52.710;6.398;2023-07-30T03:58:23;13.98;;;4.20;;
52124;SDS011;38119;52.710;6.398;2023-07-30T04:00:49;12.23;;;3.95;;
52124;SDS011;38119;52.710;6.398;2023-07-30T04:03:14;13.45;;;4.57;;
52124;SDS011;38119;52.710;6.398;2023-07-30T04:05:40;15.70;;;4.50;;
52124;SDS011;38119;52.710;6.398;2023-07-30T04:08:05;14.95;;;4.55;;
52124;SDS011;38119;52.710;6.398;2023-07-30T04:10:31;14.73;;;4.28;;
52124;SDS011;38119;52.710;6.398;2023-07-30T04:12:57;13.75;;;4.00;;
52124;SDS011;38119;52.710;6.398;2023-07-30T04:15:23;10.02;;;4.13;;
52124;SDS011;38119;52.710;6.398;2023-07-30T04:17:48;14.10;;;4.22;;
52124;SDS011;38119;52.710;6.398;2023-07-30T04:20:14;12.40;;;3.83;;
52124;SDS011;38119;52.710;6.398;2023-07-30T04:22:40;15.80;;;4.45;;
52124;SDS011;38119;52.710;6.398;2023-07-30T04:25:06;15.73;;;4.68;;
52124;SDS011;38119;52.710;6.398;2023-07-30T04:27:33;14.43;;;4.60;;
52124;SDS011;38119;52.710;6.398;2023-07-30T04:29:58;12.38;;;4.65;;
52124;SDS011;38119;52.710;6.398;2023-07-30T04:32:24;11.00;;;4.15;;
52124;SDS011;38119;52.710;6.398;2023-07-30T04:34:49;14.05;;;4.53;;
52124;SDS011;38119;52.710;6.398;2023-07-30T04:37:15;16.08;;;5.00;;
52124;SDS011;38119;52.710;6.398;2023-07-30T04:39:41;18.50;;;4.88;;
52124;SDS011;38119;52.710;6.398;2023-07-30T04:42:06;16.30;;;4.72;;
52124;SDS011;38119;52.710;6.398;2023-07-30T04:44:32;12.75;;;4.60;;
52124;SDS011;38119;52.710;6.398;2023-07-30T04:46:58;21.15;;;4.20;;
52124;SDS011;38119;52.710;6.398;2023-07-30T04:49:23;16.02;;;4.65;;
52124;SDS011;38119;52.710;6.398;2023-07-30T04:51:49;15.02;;;4.40;;
52124;SDS011;38119;52.710;6.398;2023-07-30T04:54:15;13.40;;;4.43;;
52124;SDS011;38119;52.710;6.398;2023-07-30T04:56:40;15.02;;;4.28;;
52124;SDS011;38119;52.710;6.398;2023-07-30T04:59:06;16.35;;;4.65;;
52124;SDS011;38119;52.710;6.398;2023-07-30T05:01:32;16.75;;;4.70;;
52124;SDS011;38119;52.710;6.398;2023-07-30T05:03:57;13.30;;;4.32;;
52124;SDS011;38119;52.710;6.398;2023-07-30T05:06:23;14.85;;;4.80;;
52124;SDS011;38119;52.710;6.398;2023-07-30T05:08:49;15.80;;;4.50;;
52124;SDS011;38119;52.710;6.398;2023-07-30T05:11:14;16.90;;;5.13;;
52124;SDS011;38119;52.710;6.398;2023-07-30T05:13:40;15.55;;;4.78;;
52124;SDS011;38119;52.710;6.398;2023-07-30T05:16:06;22.50;;;4.95;;
52124;SDS011;38119;52.710;6.398;2023-07-30T05:18:31;17.75;;;4.75;;
52124;SDS011;38119;52.710;6.398;2023-07-30T05:20:57;20.80;;;4.95;;
52124;SDS011;38119;52.710;6.398;2023-07-30T05:23:23;21.25;;;5.50;;
52124;SDS011;38119;52.710;6.398;2023-07-30T05:25:48;16.88;;;5.05;;
52124;SDS011;38119;52.710;6.398;2023-07-30T05:28:14;19.13;;;6.03;;
52124;SDS011;38119;52.710;6.398;2023-07-30T05:30:40;24.85;;;5.57;;
52124;SDS011;38119;52.710;6.398;2023-07-30T05:33:05;17.00;;;5.20;;
52124;SDS011;38119;52.710;6.398;2023-07-30T05:35:31;16.90;;;5.18;;
52124;SDS011;38119;52.710;6.398;2023-07-30T05:37:56;21.92;;;5.47;;
52124;SDS011;38119;52.710;6.398;2023-07-30T05:40:22;21.85;;;5.85;;
52124;SDS011;38119;52.710;6.398;2023-07-30T05:42:48;12.30;;;4.65;;
52124;SDS011;38119;52.710;6.398;2023-07-30T05:45:13;15.68;;;4.82;;
52124;SDS011;38119;52.710;6.398;2023-07-30T05:47:39;20.45;;;5.60;;
52124;SDS011;38119;52.710;6.398;2023-07-30T05:50:05;17.92;;;4.60;;
52124;SDS011;38119;52.710;6.398;2023-07-30T05:52:32;26.85;;;6.03;;
52124;SDS011;38119;52.710;6.398;2023-07-30T05:54:58;19.75;;;5.47;;
52124;SDS011;38119;52.710;6.398;2023-07-30T05:57:23;25.83;;;5.32;;
52124;SDS011;38119;52.710;6.398;2023-07-30T05:59:49;20.42;;;5.35;;
52124;SDS011;38119;52.710;6.398;2023-07-30T06:02:15;22.42;;;5.40;;
52124;SDS011;38119;52.710;6.398;2023-07-30T06:04:40;18.40;;;5.13;;
52124;SDS011;38119;52.710;6.398;2023-07-30T06:07:06;16.13;;;5.25;;
52124;SDS011;38119;52.710;6.398;2023-07-30T06:09:32;19.25;;;4.95;;
52124;SDS011;38119;52.710;6.398;2023-07-30T06:11:57;18.13;;;5.47;;
52124;SDS011;38119;52.710;6.398;2023-07-30T06:14:24;15.38;;;5.57;;
52124;SDS011;38119;52.710;6.398;2023-07-30T06:16:50;20.92;;;5.63;;
52124;SDS011;38119;52.710;6.398;2023-07-30T06:19:16;26.02;;;5.47;;
52124;SDS011;38119;52.710;6.398;2023-07-30T06:21:42;18.17;;;5.15;;
52124;SDS011;38119;52.710;6.398;2023-07-30T06:24:07;20.65;;;5.30;;
52124;SDS011;38119;52.710;6.398;2023-07-30T06:26:33;18.85;;;5.10;;
52124;SDS011;38119;52.710;6.398;2023-07-30T06:29:00;16.15;;;4.70;;
52124;SDS011;38119;52.710;6.398;2023-07-30T06:31:26;22.95;;;5.70;;
52124;SDS011;38119;52.710;6.398;2023-07-30T06:33:51;23.30;;;5.20;;
52124;SDS011;38119;52.710;6.398;2023-07-30T06:36:17;16.38;;;4.82;;
52124;SDS011;38119;52.710;6.398;2023-07-30T06:38:42;22.38;;;5.03;;
52124;SDS011;38119;52.710;6.398;2023-07-30T06:41:08;23.05;;;4.70;;
52124;SDS011;38119;52.710;6.398;2023-07-30T06:43:34;19.20;;;5.10;;
52124;SDS011;38119;52.710;6.398;2023-07-30T06:45:59;20.15;;;4.90;;
52124;SDS011;38119;52.710;6.398;2023-07-30T06:48:25;26.52;;;5.55;;
52124;SDS011;38119;52.710;6.398;2023-07-30T06:50:50;18.23;;;4.18;;
52124;SDS011;38119;52.710;6.398;2023-07-30T06:53:16;18.77;;;4.63;;
52124;SDS011;38119;52.710;6.398;2023-07-30T06:55:42;21.45;;;5.13;;
52124;SDS011;38119;52.710;6.398;2023-07-30T06:58:08;18.80;;;4.72;;
52124;SDS011;38119;52.710;6.398;2023-07-30T07:00:33;16.55;;;4.60;;
52124;SDS011;38119;52.710;6.398;2023-07-30T07:02:59;16.75;;;4.50;;
52124;SDS011;38119;52.710;6.398;2023-07-30T07:05:25;18.63;;;4.97;;
52124;SDS011;38119;52.710;6.398;2023-07-30T07:07:50;22.63;;;4.78;;
52124;SDS011;38119;52.710;6.398;2023-07-30T07:10:16;14.23;;;3.90;;
52124;SDS011;38119;52.710;6.398;2023-07-30T07:12:42;16.05;;;3.72;;
52124;SDS011;38119;52.710;6.398;2023-07-30T07:15:07;16.00;;;4.22;;
52124;SDS011;38119;52.710;6.398;2023-07-30T07:17:33;12.38;;;4.25;;
52124;SDS011;38119;52.710;6.398;2023-07-30T07:19:59;14.30;;;4.00;;
52124;SDS011;38119;52.710;6.398;2023-07-30T07:22:24;18.42;;;4.35;;
52124;SDS011;38119;52.710;6.398;2023-07-30T07:24:53;14.98;;;3.75;;
52124;SDS011;38119;52.710;6.398;2023-07-30T07:27:19;21.02;;;4.90;;
52124;SDS011;38119;52.710;6.398;2023-07-30T07:29:44;20.85;;;5.00;;
52124;SDS011;38119;52.710;6.398;2023-07-30T07:32:10;17.55;;;3.90;;
52124;SDS011;38119;52.710;6.398;2023-07-30T07:34:36;15.23;;;3.85;;
52124;SDS011;38119;52.710;6.398;2023-07-30T07:37:02;17.02;;;4.43;;
52124;SDS011;38119;52.710;6.398;2023-07-30T07:39:28;14.73;;;4.20;;
52124;SDS011;38119;52.710;6.398;2023-07-30T07:41:54;22.15;;;4.85;;
52124;SDS011;38119;52.710;6.398;2023-07-30T07:44:20;16.95;;;3.78;;
52124;SDS011;38119;52.710;6.398;2023-07-30T07:46:46;22.30;;;4.50;;
52124;SDS011;38119;52.710;6.398;2023-07-30T07:49:12;8.73;;;3.10;;
52124;SDS011;38119;52.710;6.398;2023-07-30T07:51:38;17.27;;;4.28;;
52124;SDS011;38119;52.710;6.398;2023-07-30T07:54:03;15.85;;;3.65;;
52124;SDS011;38119;52.710;6.398;2023-07-30T07:56:29;13.00;;;3.90;;
52124;SDS011;38119;52.710;6.398;2023-07-30T07:58:56;14.70;;;3.45;;
52124;SDS011;38119;52.710;6.398;2023-07-30T08:01:22;12.82;;;3.58;;
52124;SDS011;38119;52.710;6.398;2023-07-30T08:03:48;12.20;;;3.55;;
52124;SDS011;38119;52.710;6.398;2023-07-30T08:06:13;15.70;;;4.07;;
52124;SDS011;38119;52.710;6.398;2023-07-30T08:08:42;12.05;;;3.30;;
52124;SDS011;38119;52.710;6.398;2023-07-30T08:11:08;12.05;;;3.40;;
52124;SDS011;38119;52.710;6.398;2023-07-30T08:13:34;14.18;;;3.50;;
52124;SDS011;38119;52.710;6.398;2023-07-30T08:16:00;11.63;;;3.88;;
52124;SDS011;38119;52.710;6.398;2023-07-30T08:18:26;11.05;;;3.83;;
52124;SDS011;38119;52.710;6.398;2023-07-30T08:20:52;16.35;;;3.97;;
52124;SDS011;38119;52.710;6.398;2023-07-30T08:23:18;13.20;;;3.90;;
52124;SDS011;38119;52.710;6.398;2023-07-30T08:25:44;15.55;;;3.50;;
52124;SDS011;38119;52.710;6.398;2023-07-30T08:28:09;17.48;;;4.13;;
52124;SDS011;38119;52.710;6.398;2023-07-30T08:30:35;15.05;;;4.32;;
52124;SDS011;38119;52.710;6.398;2023-07-30T08:33:00;12.75;;;4.32;;
52124;SDS011;38119;52.710;6.398;2023-07-30T08:35:26;13.32;;;5.18;;
52124;SDS011;38119;52.710;6.398;2023-07-30T08:37:52;13.85;;;4.93;;
52124;SDS011;38119;52.710;6.398;2023-07-30T08:40:18;16.63;;;4.53;;
52124;SDS011;38119;52.710;6.398;2023-07-30T08:42:52;15.88;;;5.00;;
52124;SDS011;38119;52.710;6.398;2023-07-30T08:45:18;13.02;;;4.78;;
52124;SDS011;38119;52.710;6.398;2023-07-30T08:47:45;13.45;;;4.45;;
52124;SDS011;38119;52.710;6.398;2023-07-30T08:50:11;16.85;;;4.35;;
52124;SDS011;38119;52.710;6.398;2023-07-30T08:52:37;13.90;;;4.50;;
52124;SDS011;38119;52.710;6.398;2023-07-30T08:55:04;19.42;;;4.93;;
52124;SDS011;38119;52.710;6.398;2023-07-30T08:57:31;11.40;;;4.22;;
52124;SDS011;38119;52.710;6.398;2023-07-30T09:00:02;13.52;;;4.65;;
52124;SDS011;38119;52.710;6.398;2023-07-30T09:02:30;14.65;;;4.63;;
52124;SDS011;38119;52.710;6.398;2023-07-30T09:04:59;15.73;;;4.63;;
52124;SDS011;38119;52.710;6.398;2023-07-30T09:07:26;12.80;;;3.97;;
52124;SDS011;38119;52.710;6.398;2023-07-30T09:09:52;12.90;;;3.88;;
52124;SDS011;38119;52.710;6.398;2023-07-30T09:12:18;12.25;;;3.83;;
52124;SDS011;38119;52.710;6.398;2023-07-30T09:14:43;13.52;;;3.75;;
52124;SDS011;38119;52.710;6.398;2023-07-30T09:17:18;13.18;;;4.03;;
52124;SDS011;38119;52.710;6.398;2023-07-30T09:19:44;15.77;;;3.80;;
52124;SDS011;38119;52.710;6.398;2023-07-30T09:22:12;16.73;;;3.92;;
52124;SDS011;38119;52.710;6.398;2023-07-30T09:24:41;10.35;;;3.72;;
52124;SDS011;38119;52.710;6.398;2023-07-30T09:29:35;15.10;;;4.40;;
52124;SDS011;38119;52.710;6.398;2023-07-30T09:32:01;17.58;;;4.10;;
52124;SDS011;38119;52.710;6.398;2023-07-30T09:34:26;14.43;;;4.03;;
52124;SDS011;38119;52.710;6.398;2023-07-30T09:36:53;15.40;;;4.72;;
52124;SDS011;38119;52.710;6.398;2023-07-30T09:39:23;16.45;;;4.55;;
52124;SDS011;38119;52.710;6.398;2023-07-30T09:41:50;13.18;;;4.72;;
52124;SDS011;38119;52.710;6.398;2023-07-30T09:44:19;15.10;;;4.60;;
52124;SDS011;38119;52.710;6.398;2023-07-30T09:46:47;12.93;;;3.47;;
52124;SDS011;38119;52.710;6.398;2023-07-30T09:49:14;11.15;;;3.35;;
52124;SDS011;38119;52.710;6.398;2023-07-30T09:51:41;9.90;;;3.50;;
52124;SDS011;38119;52.710;6.398;2023-07-30T09:54:16;10.50;;;3.72;;
52124;SDS011;38119;52.710;6.398;2023-07-30T09:56:42;10.25;;;3.03;;
52124;SDS011;38119;52.710;6.398;2023-07-30T09:59:08;14.43;;;3.58;;
52124;SDS011;38119;52.710;6.398;2023-07-30T10:01:39;9.88;;;3.00;;
52124;SDS011;38119;52.710;6.398;2023-07-30T10:04:08;10.30;;;2.60;;
52124;SDS011;38119;52.710;6.398;2023-07-30T10:06:41;11.18;;;2.70;;
52124;SDS011;38119;52.710;6.398;2023-07-30T10:09:11;10.15;;;3.10;;
52124;SDS011;38119;52.710;6.398;2023-07-30T10:11:39;10.65;;;3.40;;
52124;SDS011;38119;52.710;6.398;2023-07-30T10:14:06;11.15;;;3.10;;
52124;SDS011;38119;52.710;6.398;2023-07-30T10:16:32;12.20;;;3.08;;
52124;SDS011;38119;52.710;6.398;2023-07-30T10:18:57;11.40;;;3.03;;
52124;SDS011;38119;52.710;6.398;2023-07-30T10:21:24;11.00;;;3.25;;
52124;SDS011;38119;52.710;6.398;2023-07-30T10:23:58;8.57;;;3.00;;
52124;SDS011;38119;52.710;6.398;2023-07-30T10:26:32;12.27;;;3.03;;
52124;SDS011;38119;52.710;6.398;2023-07-30T10:29:16;9.52;;;2.92;;
52124;SDS011;38119;52.710;6.398;2023-07-30T10:31:54;12.02;;;2.92;;
52124;SDS011;38119;52.710;6.398;2023-07-30T10:34:21;14.48;;;2.95;;
52124;SDS011;38119;52.710;6.398;2023-07-30T10:36:50;7.63;;;2.42;;
52124;SDS011;38119;52.710;6.398;2023-07-30T10:39:26;10.27;;;2.80;;
52124;SDS011;38119;52.710;6.398;2023-07-30T10:42:20;13.60;;;3.50;;
52124;SDS011;38119;52.710;6.398;2023-07-30T10:44:46;14.75;;;3.47;;
52124;SDS011;38119;52.710;6.398;2023-07-30T10:47:14;11.02;;;3.17;;
52124;SDS011;38119;52.710;6.398;2023-07-30T10:49:41;9.95;;;3.15;;
52124;SDS011;38119;52.710;6.398;2023-07-30T10:52:09;13.02;;;2.60;;
52124;SDS011;38119;52.710;6.398;2023-07-30T10:54:34;9.40;;;2.80;;
52124;SDS011;38119;52.710;6.398;2023-07-30T10:57:03;9.30;;;2.33;;
52124;SDS011;38119;52.710;6.398;2023-07-30T10:59:33;8.98;;;2.47;;
52124;SDS011;38119;52.710;6.398;2023-07-30T11:02:01;5.85;;;2.33;;
52124;SDS011;38119;52.710;6.398;2023-07-30T11:04:27;7.82;;;2.40;;
52124;SDS011;38119;52.710;6.398;2023-07-30T11:06:53;10.77;;;2.60;;
52124;SDS011;38119;52.710;6.398;2023-07-30T11:09:19;7.05;;;1.80;;
52124;SDS011;38119;52.710;6.398;2023-07-30T11:11:46;6.07;;;1.80;;
52124;SDS011;38119;52.710;6.398;2023-07-30T11:14:16;13.23;;;2.35;;
52124;SDS011;38119;52.710;6.398;2023-07-30T11:16:53;5.97;;;1.92;;
52124;SDS011;38119;52.710;6.398;2023-07-30T11:21:46;6.40;;;2.00;;
52124;SDS011;38119;52.710;6.398;2023-07-30T11:24:13;8.02;;;1.85;;
52124;SDS011;38119;52.710;6.398;2023-07-30T11:26:39;6.65;;;1.90;;
52124;SDS011;38119;52.710;6.398;2023-07-30T11:29:17;9.27;;;2.87;;
52124;SDS011;38119;52.710;6.398;2023-07-30T11:31:44;5.25;;;1.85;;
52124;SDS011;38119;52.710;6.398;2023-07-30T11:34:11;6.97;;;1.83;;
52124;SDS011;38119;52.710;6.398;2023-07-30T11:36:37;10.60;;;2.10;;
52124;SDS011;38119;52.710;6.398;2023-07-30T11:39:05;10.98;;;2.20;;
52124;SDS011;38119;52.710;6.398;2023-07-30T11:41:32;7.13;;;2.40;;
52124;SDS011;38119;52.710;6.398;2023-07-30T11:43:58;9.32;;;2.25;;
52124;SDS011;38119;52.710;6.398;2023-07-30T11:46:24;6.20;;;2.00;;
52124;SDS011;38119;52.710;6.398;2023-07-30T11:51:27;8.93;;;2.28;;
52124;SDS011;38119;52.710;6.398;2023-07-30T11:53:54;6.70;;;1.73;;
52124;SDS011;38119;52.710;6.398;2023-07-30T11:58:50;10.05;;;2.08;;
52124;SDS011;38119;52.710;6.398;2023-07-30T12:01:20;10.52;;;2.22;;
52124;SDS011;38119;52.710;6.398;2023-07-30T12:03:49;8.85;;;2.42;;
52124;SDS011;38119;52.710;6.398;2023-07-30T12:06:14;14.40;;;2.05;;
52124;SDS011;38119;52.710;6.398;2023-07-30T12:08:40;7.20;;;1.70;;
52124;SDS011;38119;52.710;6.398;2023-07-30T12:11:06;11.88;;;2.10;;
52124;SDS011;38119;52.710;6.398;2023-07-30T12:13:33;6.22;;;1.58;;
52124;SDS011;38119;52.710;6.398;2023-07-30T12:16:06;8.50;;;2.50;;
52124;SDS011;38119;52.710;6.398;2023-07-30T12:18:32;6.25;;;2.03;;
52124;SDS011;38119;52.710;6.398;2023-07-30T12:20:57;5.97;;;1.95;;
52124;SDS011;38119;52.710;6.398;2023-07-30T12:23:23;6.93;;;1.90;;
52124;SDS011;38119;52.710;6.398;2023-07-30T12:25:49;5.40;;;1.50;;
52124;SDS011;38119;52.710;6.398;2023-07-30T12:28:16;8.52;;;1.90;;
52124;SDS011;38119;52.710;6.398;2023-07-30T12:30:41;7.47;;;1.88;;
52124;SDS011;38119;52.710;6.398;2023-07-30T12:33:07;5.75;;;1.90;;
52124;SDS011;38119;52.710;6.398;2023-07-30T12:35:33;6.20;;;1.83;;
52124;SDS011;38119;52.710;6.398;2023-07-30T12:37:59;6.10;;;2.05;;
52124;SDS011;38119;52.710;6.398;2023-07-30T12:40:26;7.53;;;2.10;;
52124;SDS011;38119;52.710;6.398;2023-07-30T12:42:54;6.97;;;2.10;;
52124;SDS011;38119;52.710;6.398;2023-07-30T12:45:20;5.88;;;1.75;;
52124;SDS011;38119;52.710;6.398;2023-07-30T12:47:46;10.07;;;2.20;;
52124;SDS011;38119;52.710;6.398;2023-07-30T12:50:12;5.95;;;1.77;;
52124;SDS011;38119;52.710;6.398;2023-07-30T12:52:37;6.70;;;2.20;;
52124;SDS011;38119;52.710;6.398;2023-07-30T12:55:03;7.40;;;2.10;;
52124;SDS011;38119;52.710;6.398;2023-07-30T12:57:29;7.75;;;1.77;;
52124;SDS011;38119;52.710;6.398;2023-07-30T12:59:55;7.97;;;1.83;;
52124;SDS011;38119;52.710;6.398;2023-07-30T13:02:21;5.78;;;1.90;;
52124;SDS011;38119;52.710;6.398;2023-07-30T13:04:47;7.65;;;2.30;;
52124;SDS011;38119;52.710;6.398;2023-07-30T13:07:12;10.73;;;2.58;;
52124;SDS011;38119;52.710;6.398;2023-07-30T13:09:38;8.68;;;2.25;;
52124;SDS011;38119;52.710;6.398;2023-07-30T13:12:04;9.05;;;2.38;;
52124;SDS011;38119;52.710;6.398;2023-07-30T13:14:30;8.35;;;2.42;;
52124;SDS011;38119;52.710;6.398;2023-07-30T13:16:56;10.10;;;2.03;;
52124;SDS011;38119;52.710;6.398;2023-07-30T13:19:22;9.65;;;2.45;;
52124;SDS011;38119;52.710;6.398;2023-07-30T13:21:47;7.93;;;2.17;;
52124;SDS011;38119;52.710;6.398;2023-07-30T13:24:13;6.80;;;2.03;;
52124;SDS011;38119;52.710;6.398;2023-07-30T13:26:38;9.60;;;2.20;;
52124;SDS011;38119;52.710;6.398;2023-07-30T13:29:04;11.02;;;2.33;;
52124;SDS011;38119;52.710;6.398;2023-07-30T13:31:30;8.30;;;2.05;;
52124;SDS011;38119;52.710;6.398;2023-07-30T13:33:55;8.13;;;2.20;;
52124;SDS011;38119;52.710;6.398;2023-07-30T13:36:21;10.02;;;2.10;;
52124;SDS011;38119;52.710;6.398;2023-07-30T13:38:47;8.30;;;1.98;;
52124;SDS011;38119;52.710;6.398;2023-07-30T13:41:13;10.00;;;2.05;;
52124;SDS011;38119;52.710;6.398;2023-07-30T13:43:41;7.68;;;2.08;;
52124;SDS011;38119;52.710;6.398;2023-07-30T13:46:08;8.15;;;1.80;;
52124;SDS011;38119;52.710;6.398;2023-07-30T13:48:33;6.78;;;2.08;;
52124;SDS011;38119;52.710;6.398;2023-07-30T13:50:59;7.47;;;2.25;;
52124;SDS011;38119;52.710;6.398;2023-07-30T13:53:25;11.35;;;2.45;;
52124;SDS011;38119;52.710;6.398;2023-07-30T13:55:50;9.35;;;1.90;;
52124;SDS011;38119;52.710;6.398;2023-07-30T13:58:16;8.75;;;2.05;;
52124;SDS011;38119;52.710;6.398;2023-07-30T14:00:42;10.20;;;1.95;;
52124;SDS011;38119;52.710;6.398;2023-07-30T14:03:08;10.90;;;2.38;;
52124;SDS011;38119;52.710;6.398;2023-07-30T14:05:33;10.32;;;2.35;;
52124;SDS011;38119;52.710;6.398;2023-07-30T14:07:59;7.05;;;1.92;;
52124;SDS011;38119;52.710;6.398;2023-07-30T14:10:25;7.65;;;2.22;;
52124;SDS011;38119;52.710;6.398;2023-07-30T14:12:52;5.15;;;1.30;;
52124;SDS011;38119;52.710;6.398;2023-07-30T14:15:18;6.47;;;1.63;;
52124;SDS011;38119;52.710;6.398;2023-07-30T14:17:43;4.60;;;1.27;;
52124;SDS011;38119;52.710;6.398;2023-07-30T14:20:09;5.72;;;1.40;;
52124;SDS011;38119;52.710;6.398;2023-07-30T14:22:35;5.97;;;1.80;;
52124;SDS011;38119;52.710;6.398;2023-07-30T14:25:01;6.15;;;1.30;;
52124;SDS011;38119;52.710;6.398;2023-07-30T14:27:28;4.78;;;1.30;;
52124;SDS011;38119;52.710;6.398;2023-07-30T14:29:53;4.47;;;1.60;;
52124;SDS011;38119;52.710;6.398;2023-07-30T14:32:19;3.95;;;1.45;;
52124;SDS011;38119;52.710;6.398;2023-07-30T14:34:46;6.22;;;1.58;;
52124;SDS011;38119;52.710;6.398;2023-07-30T14:37:11;5.80;;;1.60;;
52124;SDS011;38119;52.710;6.398;2023-07-30T14:39:37;7.65;;;1.60;;
52124;SDS011;38119;52.710;6.398;2023-07-30T14:42:03;9.13;;;1.92;;
52124;SDS011;38119;52.710;6.398;2023-07-30T14:44:29;7.45;;;1.67;;